Britt, MN (55710)

6:47 PM CST on February 12, 2016 (GMT -0600)
Cook Municipal | | Change Station
CLOSE
Current Station
Airport
Location: Cook,
Elevation: 1325 ft
Nearby Weather Stations
Active Advisory: Wind Chill Advisory

Elev 1325 ft 47.82 °N, 92.69 °W | Updated 12 minutes ago

Clear
Clear
-8 °F
Feels Like -26 °F
N
10
Wind Variable Wind from WNW

Today
High -- | Low -- °F
--% Chance of Precip.
Yesterday
High -- | Low -- °F
Precip. -- in
Pressure 30.48 in
Visibility 10.0 miles
Clouds Clear
Windchill -26 °F
Dew Point -18 °F
Humidity 59%
Rainfall 0.00 in
Snow Depth Not available.
7:21 AM 5:28 PM
Waxing Crescent, 25% visible
METAR KCQM 130035Z AUTO 30009KT 10SM CLR M22/M28 A3048 RMK AO2
Pressure 30.48 in
Visibility 10.0 miles
Clouds Clear
Windchill -26 °F
Dew Point -18 °F
Humidity 59%
Rainfall 0.00 in
Snow Depth Not available.
7:21 AM 5:28 PM
Waxing Crescent, 25% visible
METAR KCQM 130035Z AUTO 30009KT 10SM CLR M22/M28 A3048 RMK AO2

10-Day Weather Forecast

Almanac

Astronomy

Feb. 12, 2016 Rise Set
Actual Time
Civil Twilight
Nautical Twilight
Astronomical Twilight
Moon
Length of Visible Light
Length of Day
Tomorrow will be .
, % of the Moon is Illuminated

Today's Extremes

State Highs State Lows

Community

WunderPhotos

Upload Photos

1,892,444 photos uploaded!

WunderBlog® & News

Nearby

Air Quality

  Air Quality AQ Index Pollutant
Not available.

Snow Depth

Station Depth Elevation

Earthquake Activity

City Distance Mag. Time & Date
Minimum magnitude displayed is 2.5.

Coastal Water Temperatures

Place Temperature

Stations

Nearby Weather Stations

Station Location Temp. Windchill Dew Point Humidity Wind Precip. Elev Updated Type
                   

Watches & Warnings

Wind Chill Advisory
Issued: 3:30 PM CST Feb. 12, 2016 – National Weather Service

... Wind Chill Advisory remains in effect until 9 am CST
Saturday...

* wind chill values... as low as 40 below.

* Sustained winds... northwest 10 to 15 mph... becoming 5 to 10
mph tonight.

* Wind gusts... up to 25 mph this afternoon.

* Frostbite time... 15 to 30 minutes on exposed skin.

Precautionary/preparedness actions...

A Wind Chill Advisory means that very cold air and winds will
combine to generate very cold wind chills. This may result in
hypothermia... and frost bite is possible if exposed skin is not
covered. If you venture outdoors... make sure you wear a hat and
gloves... and cover exposed skin exposed to the wind.